Time;durP1;ratioP1;P1;durP2;ratioP2;P2;SDS_P1;SDS_P2;PMS_P1;PMS_P2;Temp;Humidity;BMP_temperature;BMP_pressure;BME280_temperature;BME280_humidity;BME280_pressure;Samples;Min_cycle;Max_cycle;Signal;HPM_P1;HPM_P2
2023/02/11 00:00:37;;;;;;;11.15;6.80;;;12.50;50.70;;;;;;5056025;28;20457;-79
2023/02/11 00:03:03;;;;;;;10.38;7.15;;;12.50;50.70;;;;;;5055731;28;20028;-78
2023/02/11 00:05:29;;;;;;;12.20;6.75;;;12.50;50.70;;;;;;5057403;28;20041;-77
2023/02/11 00:07:55;;;;;;;11.98;6.70;;;12.50;50.70;;;;;;5059719;28;20453;-79
2023/02/11 00:10:21;;;;;;;13.00;7.35;;;12.50;50.70;;;;;;5059011;28;20068;-78
2023/02/11 00:12:46;;;;;;;12.05;7.07;;;12.50;50.80;;;;;;5054654;28;20052;-78
2023/02/11 00:15:12;;;;;;;12.70;7.15;;;12.50;50.70;;;;;;5056141;28;20036;-78
2023/02/11 00:17:38;;;;;;;10.40;6.38;;;12.50;50.80;;;;;;5056548;28;20029;-79
2023/02/11 00:20:05;;;;;;;9.18;6.15;;;12.50;50.80;;;;;;5057239;28;20032;-79
2023/02/11 00:22:31;;;;;;;14.02;7.00;;;12.50;50.70;;;;;;5071285;28;20033;-78
2023/02/11 00:24:57;;;;;;;10.80;5.95;;;12.50;50.60;;;;;;5056364;28;20454;-80
2023/02/11 00:27:24;;;;;;;11.77;6.20;;;12.50;50.60;;;;;;5054043;28;20024;-80
2023/02/11 00:29:50;;;;;;;11.27;6.20;;;12.50;50.60;;;;;;5056149;28;20629;-79
2023/02/11 00:32:16;;;;;;;11.25;5.97;;;12.50;50.60;;;;;;5056549;28;20029;-79
2023/02/11 00:34:42;;;;;;;10.00;6.38;;;12.50;50.50;;;;;;5057261;28;20040;-80
2023/02/11 00:37:09;;;;;;;10.93;6.35;;;12.40;50.50;;;;;;5057271;28;20070;-78
2023/02/11 00:39:36;;;;;;;14.05;6.57;;;12.50;50.40;;;;;;5057579;28;20040;-78
2023/02/11 00:42:02;;;;;;;10.98;5.78;;;12.40;50.30;;;;;;5026426;28;20095;-78
2023/02/11 00:44:28;;;;;;;10.55;6.15;;;12.50;50.90;;;;;;5057819;28;20091;-78
2023/02/11 00:46:54;;;;;;;10.30;5.95;;;12.40;50.30;;;;;;5057723;28;20490;-80
2023/02/11 00:49:20;;;;;;;11.18;6.03;;;12.40;50.30;;;;;;5039638;28;20047;-81
2023/02/11 00:51:47;;;;;;;10.05;6.00;;;12.40;50.30;;;;;;5057922;28;20054;-80
2023/02/11 00:54:13;;;;;;;11.80;6.13;;;12.40;50.20;;;;;;5022051;28;20082;-81
2023/02/11 00:56:39;;;;;;;11.80;5.97;;;12.40;50.30;;;;;;5036811;28;20434;-78
2023/02/11 00:59:05;;;;;;;10.15;5.80;;;12.40;50.30;;;;;;5038509;28;20032;-77
2023/02/11 01:01:31;;;;;;;9.48;6.15;;;12.40;50.20;;;;;;5057185;28;20045;-78
2023/02/11 01:03:57;;;;;;;10.40;5.93;;;12.40;50.20;;;;;;5055857;28;20037;-78
2023/02/11 01:06:23;;;;;;;10.52;5.55;;;12.40;50.20;;;;;;5056218;28;20029;-78
2023/02/11 01:08:49;;;;;;;10.55;5.80;;;12.40;50.10;;;;;;5056074;28;20037;-77
2023/02/11 01:11:18;;;;;;;10.15;5.90;;;12.40;50.00;;;;;;5041945;28;20143;-79
2023/02/11 01:13:45;;;;;;;10.60;5.82;;;12.40;50.00;;;;;;5057324;28;20029;-77
2023/02/11 01:16:12;;;;;;;9.50;5.00;;;12.40;50.00;;;;;;5022736;28;20540;-77
2023/02/11 01:18:38;;;;;;;8.93;5.57;;;12.40;50.10;;;;;;5039981;28;20507;-78
2023/02/11 01:21:05;;;;;;;11.63;5.80;;;12.40;50.10;;;;;;5038418;28;20045;-77
2023/02/11 01:23:31;;;;;;;10.02;5.85;;;12.30;50.10;;;;;;5038888;28;20476;-78
2023/02/11 01:25:57;;;;;;;7.60;4.90;;;12.30;50.10;;;;;;5045393;28;20025;-77
2023/02/11 01:28:25;;;;;;;10.73;5.45;;;12.30;50.10;;;;;;5053599;28;20049;-77
2023/02/11 01:30:52;;;;;;;10.02;4.88;;;12.30;50.10;;;;;;5053885;28;20039;-76
2023/02/11 01:33:19;;;;;;;9.57;5.35;;;12.30;50.10;;;;;;5041621;28;20078;-77
2023/02/11 01:35:45;;;;;;;9.77;5.30;;;12.30;50.00;;;;;;5056214;28;20060;-78
2023/02/11 01:38:16;;;;;;;10.18;4.80;;;12.30;50.10;;;;;;5055450;28;20044;-77
2023/02/11 01:40:52;;;;;;;11.55;5.65;;;12.30;50.00;;;;;;5055061;28;20041;-78
2023/02/11 01:43:18;;;;;;;10.07;5.40;;;12.30;50.10;;;;;;5083673;28;20032;-77
2023/02/11 01:45:47;;;;;;;11.68;5.13;;;12.30;50.00;;;;;;5054092;28;20036;-77
2023/02/11 01:48:37;;;;;;;8.57;4.95;;;12.30;50.00;;;;;;5056016;28;20186;-76
2023/02/11 01:51:26;;;;;;;8.05;4.40;;;12.30;50.10;;;;;;5055087;28;20404;-77
2023/02/11 02:00:10;;;;;;;9.18;4.82;;;12.20;49.80;;;;;;5060001;28;20028;-78
2023/02/11 02:02:57;;;;;;;8.25;4.95;;;12.20;49.90;;;;;;5035869;28;20040;-78
2023/02/11 02:05:42;;;;;;;8.27;4.85;;;12.20;50.50;;;;;;5053860;28;20111;-77
2023/02/11 02:08:20;;;;;;;8.02;4.30;;;12.20;49.80;;;;;;5054741;28;20037;-77
2023/02/11 02:10:52;;;;;;;7.15;4.43;;;12.20;49.90;;;;;;5043871;28;20032;-78
2023/02/11 02:13:18;;;;;;;6.40;4.53;;;12.20;49.90;;;;;;5052738;28;20029;-77
2023/02/11 02:16:09;;;;;;;7.28;4.75;;;12.20;49.80;;;;;;5055773;28;20025;-79
2023/02/11 02:19:18;;;;;;;7.60;4.75;;;12.20;49.80;;;;;;5040302;28;20068;-77
2023/02/11 02:22:16;;;;;;;7.20;4.05;;;12.20;49.80;;;;;;5029750;28;20045;-77
2023/02/11 02:25:03;;;;;;;7.07;4.47;;;12.10;49.70;;;;;;5037029;28;20053;-77
2023/02/11 02:27:47;;;;;;;8.10;4.38;;;12.10;49.60;;;;;;5035011;28;20117;-78
2023/02/11 02:30:32;;;;;;;7.30;3.83;;;12.10;49.60;;;;;;5053848;28;20075;-76
2023/02/11 02:33:23;;;;;;;8.85;4.03;;;12.10;49.70;;;;;;5054123;28;20033;-77
2023/02/11 02:36:15;;;;;;;8.85;4.07;;;12.10;49.70;;;;;;5054456;28;20533;-76
2023/02/11 02:38:59;;;;;;;7.63;4.07;;;12.10;49.70;;;;;;5054724;28;20122;-77
2023/02/11 02:41:33;;;;;;;6.70;3.70;;;12.10;49.50;;;;;;5054452;28;20029;-78
2023/02/11 02:43:59;;;;;;;5.25;3.40;;;12.10;49.50;;;;;;5049982;28;20507;-79
2023/02/11 02:46:28;;;;;;;7.78;3.95;;;12.10;49.50;;;;;;5053765;28;20025;-78
2023/02/11 02:48:55;;;;;;;7.10;3.25;;;12.10;49.50;;;;;;5029358;28;20031;-78
2023/02/11 02:51:35;;;;;;;5.13;3.15;;;12.10;49.40;;;;;;5055211;28;20040;-79
2023/02/11 02:54:16;;;;;;;5.28;2.92;;;12.10;49.20;;;;;;5055148;28;20470;-78
2023/02/11 02:56:56;;;;;;;5.97;3.10;;;12.10;49.20;;;;;;5054271;28;20560;-78
2023/02/11 02:59:56;;;;;;;6.03;3.38;;;12.10;49.10;;;;;;5052860;28;20040;-77
2023/02/11 03:02:47;;;;;;;6.45;3.17;;;12.10;49.10;;;;;;5054441;28;20041;-77
2023/02/11 03:05:59;;;;;;;7.20;3.30;;;12.00;48.90;;;;;;5055422;28;20037;-78
2023/02/11 03:08:37;;;;;;;4.63;3.10;;;12.00;48.90;;;;;;5012020;28;20049;-77
2023/02/11 03:11:06;;;;;;;6.88;3.55;;;12.00;48.90;;;;;;5016400;28;20033;-78
2023/02/11 03:13:35;;;;;;;4.60;2.78;;;12.00;49.00;;;;;;5013721;28;20034;-77
2023/02/11 03:16:08;;;;;;;5.32;3.08;;;12.10;49.20;;;;;;5017076;28;20483;-78
2023/02/11 03:18:36;;;;;;;8.10;3.53;;;12.00;49.10;;;;;;5016182;28;20473;-77
2023/02/11 03:21:04;;;;;;;6.70;3.30;;;12.00;49.00;;;;;;4999822;28;20038;-77
2023/02/11 03:23:48;;;;;;;7.15;3.17;;;12.00;49.00;;;;;;5015552;28;22220;-77
2023/02/11 03:26:36;;;;;;;6.60;3.13;;;12.00;49.10;;;;;;5000406;28;20538;-77
2023/02/11 03:29:30;;;;;;;5.72;2.80;;;12.00;49.00;;;;;;5004606;28;20050;-77
2023/02/11 03:32:05;;;;;;;5.18;2.95;;;12.00;49.00;;;;;;5016193;28;20038;-77
2023/02/11 03:34:45;;;;;;;6.53;3.35;;;12.00;49.00;;;;;;5016697;28;20029;-77
2023/02/11 03:37:17;;;;;;;5.13;3.00;;;12.00;48.90;;;;;;5014589;28;20111;-77
2023/02/11 03:39:55;;;;;;;7.30;3.10;;;12.00;48.90;;;;;;5015451;28;20045;-77
2023/02/11 03:42:25;;;;;;;5.47;3.05;;;12.00;48.90;;;;;;5014801;28;20503;-77
2023/02/11 03:44:58;;;;;;;6.32;2.92;;;12.00;48.90;;;;;;5026020;28;20047;-77
2023/02/11 03:47:27;;;;;;;6.32;3.17;;;12.00;49.00;;;;;;5057443;28;20036;-78
2023/02/11 03:49:56;;;;;;;8.02;3.17;;;12.00;48.90;;;;;;5058278;28;20074;-78
2023/02/11 03:52:24;;;;;;;5.47;3.08;;;12.00;49.00;;;;;;5059458;28;20037;-78
2023/02/11 03:54:54;;;;;;;4.85;2.88;;;12.00;49.00;;;;;;5060559;28;20036;-78
2023/02/11 03:57:20;;;;;;;5.50;2.75;;;12.00;49.10;;;;;;5057638;28;20029;-78
2023/02/11 03:59:53;;;;;;;5.78;2.92;;;12.00;49.10;;;;;;5055576;28;20040;-78
2023/02/11 04:02:22;;;;;;;6.10;2.58;;;12.00;49.00;;;;;;5058643;28;20130;-78
2023/02/11 04:04:48;;;;;;;4.50;2.88;;;12.00;49.00;;;;;;5059830;28;20040;-78
2023/02/11 04:07:14;;;;;;;5.85;3.10;;;12.00;49.00;;;;;;5057945;28;20523;-78
2023/02/11 04:09:41;;;;;;;4.43;2.25;;;12.00;48.90;;;;;;5057271;28;20059;-78
2023/02/11 04:12:07;;;;;;;6.47;2.88;;;12.00;48.90;;;;;;5057031;28;20067;-78
2023/02/11 04:14:33;;;;;;;6.22;2.50;;;12.00;48.90;;;;;;5053793;28;20029;-77
2023/02/11 04:16:59;;;;;;;6.05;2.92;;;12.00;48.80;;;;;;5057416;28;20530;-78
2023/02/11 04:19:25;;;;;;;6.18;2.30;;;12.00;48.80;;;;;;5056761;28;20330;-77
2023/02/11 04:21:51;;;;;;;7.10;2.95;;;12.00;48.70;;;;;;5056062;28;20711;-77
2023/02/11 04:24:17;;;;;;;5.18;2.58;;;12.00;48.60;;;;;;5057423;28;20123;-78
2023/02/11 04:26:43;;;;;;;3.20;2.30;;;12.00;48.60;;;;;;5043569;28;20036;-77
2023/02/11 04:29:09;;;;;;;4.75;2.88;;;12.00;48.70;;;;;;5053388;28;20124;-79
2023/02/11 04:31:35;;;;;;;5.70;2.40;;;12.00;48.80;;;;;;5056216;28;20024;-77
2023/02/11 04:34:01;;;;;;;5.70;2.60;;;12.00;48.70;;;;;;5057811;28;20033;-77
2023/02/11 04:36:27;;;;;;;5.43;2.85;;;12.00;48.70;;;;;;5056725;28;20025;-77
2023/02/11 04:38:53;;;;;;;4.00;2.33;;;12.00;48.60;;;;;;5057498;28;20037;-77
2023/02/11 04:41:19;;;;;;;4.60;2.35;;;12.00;48.70;;;;;;5058250;28;20099;-78
2023/02/11 04:43:45;;;;;;;5.00;2.50;;;12.00;48.70;;;;;;5054423;28;20060;-78
2023/02/11 04:46:11;;;;;;;5.05;2.50;;;12.00;48.60;;;;;;5057663;28;20090;-78
2023/02/11 04:48:37;;;;;;;5.32;2.47;;;12.00;48.60;;;;;;5057693;28;20586;-77
2023/02/11 04:51:03;;;;;;;4.93;2.05;;;12.00;48.60;;;;;;5057681;28;20041;-77
2023/02/11 04:53:29;;;;;;;5.82;2.35;;;12.00;48.50;;;;;;5056423;28;20348;-78
2023/02/11 04:55:55;;;;;;;5.63;2.67;;;12.00;48.50;;;;;;5056754;28;20043;-77
2023/02/11 04:58:21;;;;;;;5.35;2.20;;;12.00;48.50;;;;;;5054144;28;20040;-78
2023/02/11 05:00:47;;;;;;;4.57;2.30;;;12.00;48.60;;;;;;5056889;28;20068;-77
2023/02/11 05:03:13;;;;;;;4.57;2.50;;;12.00;48.60;;;;;;5056102;28;20235;-77
2023/02/11 05:05:40;;;;;;;3.22;2.10;;;11.90;48.60;;;;;;5058177;28;20119;-77
2023/02/11 05:08:07;;;;;;;4.50;2.25;;;11.90;48.70;;;;;;5056903;28;20032;-78
2023/02/11 05:10:33;;;;;;;4.90;2.00;;;11.90;48.60;;;;;;5057616;28;20060;-77
2023/02/11 05:13:00;;;;;;;4.57;2.50;;;11.90;48.60;;;;;;5056180;28;20521;-78
2023/02/11 05:15:26;;;;;;;3.65;2.47;;;11.90;48.60;;;;;;5059435;28;20033;-78
2023/02/11 05:17:53;;;;;;;3.15;1.90;;;11.90;48.60;;;;;;5054693;28;20039;-77
2023/02/11 05:20:19;;;;;;;5.57;2.60;;;11.90;48.60;;;;;;5057412;28;20071;-77
2023/02/11 05:22:45;;;;;;;3.88;1.77;;;11.90;48.60;;;;;;5055986;28;20039;-78
2023/02/11 05:25:11;;;;;;;7.68;2.72;;;11.90;48.50;;;;;;5055938;28;20033;-75
2023/02/11 05:27:37;;;;;;;5.32;2.30;;;11.90;48.50;;;;;;5055435;28;20078;-76
2023/02/11 05:30:04;;;;;;;5.88;2.42;;;11.90;48.50;;;;;;5050989;28;20057;-79
2023/02/11 05:32:30;;;;;;;6.45;2.47;;;12.00;48.60;;;;;;5055102;28;20056;-77
2023/02/11 05:34:56;;;;;;;4.03;2.10;;;11.90;48.40;;;;;;5057787;28;20059;-80
2023/02/11 05:37:22;;;;;;;4.88;2.58;;;11.90;48.40;;;;;;5057126;28;20033;-79
2023/02/11 05:39:48;;;;;;;5.47;2.30;;;11.90;48.40;;;;;;5059201;28;20047;-79
2023/02/11 05:42:14;;;;;;;6.00;2.22;;;11.90;48.30;;;;;;5055400;28;20069;-78
2023/02/11 05:44:40;;;;;;;4.72;1.80;;;11.90;48.30;;;;;;5053048;28;20064;-77
2023/02/11 05:47:07;;;;;;;4.93;2.13;;;11.90;48.30;;;;;;5055874;28;20473;-77
2023/02/11 05:49:34;;;;;;;3.40;1.98;;;11.90;48.30;;;;;;5056776;28;20064;-77
2023/02/11 05:52:00;;;;;;;4.25;2.28;;;11.90;48.30;;;;;;5054588;28;20041;-77
2023/02/11 05:54:26;;;;;;;6.03;2.42;;;11.90;48.20;;;;;;5037228;28;20625;-79
2023/02/11 05:56:52;;;;;;;2.78;1.80;;;11.90;48.20;;;;;;5088127;28;20056;-79
2023/02/11 05:59:19;;;;;;;5.88;2.30;;;11.90;48.30;;;;;;5054333;28;20132;-79
2023/02/11 06:01:45;;;;;;;3.38;2.05;;;11.90;48.20;;;;;;5056267;28;20143;-78
2023/02/11 06:04:10;;;;;;;5.45;2.40;;;11.90;48.20;;;;;;5056966;28;20032;-78
2023/02/11 06:06:36;;;;;;;3.58;1.85;;;11.90;48.10;;;;;;5088851;28;20033;-79
2023/02/11 06:09:03;;;;;;;4.35;2.20;;;11.90;48.10;;;;;;5053905;28;20055;-78
2023/02/11 06:11:28;;;;;;;3.40;2.05;;;11.90;48.20;;;;;;5053304;28;20035;-77
2023/02/11 06:13:55;;;;;;;5.63;2.10;;;11.90;48.40;;;;;;5049820;28;20044;-78
2023/02/11 06:16:21;;;;;;;4.85;2.00;;;11.90;48.20;;;;;;5057096;28;20036;-81
2023/02/11 06:18:47;;;;;;;3.00;1.70;;;11.90;48.80;;;;;;5033641;28;20098;-78
2023/02/11 06:21:13;;;;;;;4.32;2.13;;;12.00;48.40;;;;;;5034665;28;20068;-79
2023/02/11 06:23:39;;;;;;;3.92;1.98;;;11.90;48.40;;;;;;5053831;28;20040;-80
2023/02/11 06:26:08;;;;;;;5.75;2.15;;;11.90;48.40;;;;;;5056368;28;20454;-80
2023/02/11 06:28:34;;;;;;;3.83;2.13;;;11.90;48.40;;;;;;5087415;28;20056;-80
2023/02/11 06:31:05;;;;;;;5.10;1.90;;;11.90;48.40;;;;;;5060770;28;20040;-80
2023/02/11 06:33:32;;;;;;;5.07;2.40;;;12.00;48.30;;;;;;5058277;28;20061;-81
2023/02/11 06:35:58;;;;;;;6.10;2.85;;;11.90;47.80;;;;;;5011462;28;20039;-80
2023/02/11 06:38:23;;;;;;;5.93;2.53;;;11.90;46.60;;;;;;5048848;28;20028;-80
2023/02/11 06:40:50;;;;;;;5.45;2.50;;;11.80;45.90;;;;;;5052502;28;20040;-79
2023/02/11 06:43:16;;;;;;;6.00;2.78;;;11.80;45.70;;;;;;5052897;28;20032;-78
2023/02/11 06:45:42;;;;;;;6.28;2.83;;;11.70;45.60;;;;;;5049290;28;20037;-81
2023/02/11 06:48:08;;;;;;;9.80;3.03;;;11.70;45.40;;;;;;5057695;28;20033;-79
2023/02/11 06:50:34;;;;;;;7.57;3.20;;;11.60;45.30;;;;;;5056599;28;20037;-82
2023/02/11 06:53:00;;;;;;;8.48;3.20;;;11.50;45.40;;;;;;5054768;28;20040;-80
2023/02/11 06:55:26;;;;;;;7.22;3.25;;;11.40;45.60;;;;;;5057703;28;20496;-79
2023/02/11 06:57:52;;;;;;;6.85;3.67;;;11.40;45.80;;;;;;5057776;28;20103;-80
2023/02/11 07:00:20;;;;;;;7.40;3.58;;;11.30;46.00;;;;;;5052725;28;20066;-79
2023/02/11 07:02:46;;;;;;;5.50;3.15;;;11.20;45.90;;;;;;5058590;28;20028;-79
2023/02/11 07:05:13;;;;;;;9.15;3.72;;;11.20;46.00;;;;;;5071814;28;20119;-80
2023/02/11 07:07:39;;;;;;;7.03;3.90;;;11.10;46.00;;;;;;5054759;28;20484;-80
2023/02/11 07:10:05;;;;;;;10.70;3.83;;;11.00;45.30;;;;;;5058519;28;20032;-77
2023/02/11 07:12:31;;;;;;;6.95;3.85;;;11.00;44.90;;;;;;5055235;28;20040;-77
2023/02/11 07:14:57;;;;;;;13.15;3.80;;;10.90;44.60;;;;;;5053192;28;20044;-79
2023/02/11 07:17:24;;;;;;;7.15;3.65;;;10.80;44.70;;;;;;5056140;28;20032;-77
2023/02/11 07:19:50;;;;;;;7.75;3.85;;;10.80;44.40;;;;;;5057176;28;20032;-79
2023/02/11 07:22:16;;;;;;;6.85;3.92;;;10.70;44.40;;;;;;5057295;28;20033;-77
2023/02/11 07:24:43;;;;;;;8.45;3.85;;;10.60;44.50;;;;;;5057126;28;20396;-76
2023/02/11 07:27:09;;;;;;;7.65;3.75;;;10.60;44.50;;;;;;5056341;28;20518;-76
2023/02/11 07:29:36;;;;;;;10.15;3.67;;;10.50;44.50;;;;;;5051416;28;20056;-77
2023/02/11 07:32:02;;;;;;;6.07;3.60;;;10.50;44.50;;;;;;5057056;28;20029;-79
2023/02/11 07:34:30;;;;;;;10.18;3.90;;;10.50;44.70;;;;;;5037936;28;20036;-78
2023/02/11 07:36:56;;;;;;;9.75;4.03;;;10.40;44.70;;;;;;5055978;28;20029;-76
2023/02/11 07:39:26;;;;;;;6.55;3.53;;;10.40;44.80;;;;;;5057819;28;20047;-78
2023/02/11 07:42:27;;;;;;;8.55;3.40;;;10.30;44.80;;;;;;5056371;28;20047;-76
2023/02/11 07:45:38;;;;;;;;;;;;;;;;;;;;;
2023/02/11 07:48:57;;;;;;;8.20;3.72;;;10.30;44.90;;;;;;4931629;29;21473;-78
2023/02/11 07:51:24;;;;;;;6.97;4.13;;;10.30;45.00;;;;;;4934677;28;20035;-78
2023/02/11 07:53:52;;;;;;;7.45;3.50;;;10.30;45.10;;;;;;4917036;29;20040;-78
2023/02/11 07:56:19;;;;;;;7.65;4.30;;;10.30;45.30;;;;;;4940945;29;20028;-79
2023/02/11 07:58:47;;;;;;;9.77;4.15;;;10.30;45.30;;;;;;4943234;29;20474;-79
2023/02/11 08:01:16;;;;;;;7.38;4.38;;;10.30;45.40;;;;;;4939734;29;20121;-76
2023/02/11 08:03:42;;;;;;;10.48;4.03;;;10.30;45.40;;;;;;4942180;29;20064;-76
2023/02/11 08:06:11;;;;;;;7.80;4.57;;;10.30;45.30;;;;;;4917025;29;20510;-74
2023/02/11 08:08:38;;;;;;;8.85;4.68;;;10.30;45.20;;;;;;4940401;29;20043;-76
2023/02/11 08:11:13;;;;;;;9.02;4.90;;;10.30;45.20;;;;;;4923209;29;20119;-75
2023/02/11 08:13:39;;;;;;;7.82;5.18;;;10.30;45.10;;;;;;4907016;29;20072;-73
2023/02/11 08:16:05;;;;;;;11.13;5.15;;;10.30;45.10;;;;;;4938179;29;20036;-74
2023/02/11 08:18:33;;;;;;;10.88;4.45;;;10.30;45.00;;;;;;4941367;29;20299;-77
2023/02/11 08:21:07;;;;;;;11.18;4.80;;;10.30;45.00;;;;;;4956427;28;20077;-74
2023/02/11 08:23:37;;;;;;;11.65;5.10;;;10.20;44.90;;;;;;4939010;29;20070;-78
2023/02/11 08:26:04;;;;;;;8.25;4.53;;;10.30;45.00;;;;;;4989547;28;20543;-79
2023/02/11 08:28:30;;;;;;;9.48;4.97;;;10.20;44.50;;;;;;5010730;28;20046;-78
2023/02/11 08:30:56;;;;;;;9.45;4.13;;;10.20;45.00;;;;;;5005868;28;20037;-88
2023/02/11 08:33:22;;;;;;;8.70;4.18;;;10.20;46.80;;;;;;5056143;28;20029;-84
2023/02/11 08:35:48;;;;;;;9.40;4.13;;;10.30;48.20;;;;;;5022686;28;20032;-84
2023/02/11 08:38:14;;;;;;;7.75;3.42;;;10.30;49.00;;;;;;5039711;28;20553;-88
2023/02/11 08:40:41;;;;;;;6.40;3.20;;;10.40;49.80;;;;;;5039969;28;20033;-85
2023/02/11 08:43:07;;;;;;;5.35;3.17;;;10.40;50.40;;;;;;5040357;28;20038;-89
2023/02/11 08:46:09;;;;;;;8.10;3.55;;;10.50;50.80;;;;;;5055910;28;20036;-86
2023/02/11 08:49:10;;;;;;;12.10;3.55;;;10.50;51.10;;;;;;5051275;28;20044;-88
2023/02/11 08:52:31;;;;;;;6.70;3.55;;;10.60;51.30;;;;;;5035067;28;20116;-93
2023/02/11 08:55:33;;;;;;;6.18;3.58;;;10.70;51.70;;;;;;5054726;28;20124;-83
2023/02/11 08:58:26;;;;;;;5.72;3.08;;;10.80;51.80;;;;;;5052658;28;20045;-83
2023/02/11 09:00:52;;;;;;;6.18;3.30;;;10.90;52.00;;;;;;5034930;28;20029;-86
2023/02/11 09:03:18;;;;;;;6.53;3.70;;;11.00;52.00;;;;;;5044368;28;20661;-85
2023/02/11 09:05:47;;;;;;;7.10;3.55;;;11.10;52.20;;;;;;5026593;28;20041;-87
2023/02/11 09:08:14;;;;;;;7.20;3.40;;;11.10;52.20;;;;;;5037218;28;20102;-86
2023/02/11 09:10:40;;;;;;;7.10;3.40;;;11.20;52.10;;;;;;5015765;28;20043;-86
2023/02/11 09:13:06;;;;;;;7.00;3.30;;;11.30;52.30;;;;;;5056833;28;20036;-86
2023/02/11 09:15:33;;;;;;;6.70;3.45;;;11.30;52.10;;;;;;5051521;28;20028;-85
2023/02/11 09:17:59;;;;;;;8.07;4.00;;;11.40;52.10;;;;;;5054647;28;20032;-82
2023/02/11 09:20:26;;;;;;;7.38;3.40;;;11.50;52.00;;;;;;5073347;28;20037;-86
2023/02/11 09:22:53;;;;;;;6.53;3.78;;;11.50;51.80;;;;;;5056786;28;20065;-85
2023/02/11 09:25:19;;;;;;;6.32;3.15;;;11.60;51.50;;;;;;5028287;28;20127;-85
2023/02/11 09:27:46;;;;;;;6.97;3.40;;;11.60;51.40;;;;;;5039908;28;20044;-86
2023/02/11 09:30:12;;;;;;;6.63;3.30;;;11.70;51.70;;;;;;5037485;28;20395;-86
2023/02/11 09:32:38;;;;;;;7.38;3.13;;;11.80;51.40;;;;;;5068669;28;20423;-86
2023/02/11 09:35:04;;;;;;;5.47;3.10;;;11.80;51.10;;;;;;5043224;28;20048;-86
2023/02/11 09:37:30;;;;;;;6.50;3.20;;;11.80;51.00;;;;;;5055875;28;21214;-85
2023/02/11 09:39:57;;;;;;;6.75;3.45;;;11.90;50.90;;;;;;5031399;28;20372;-85
2023/02/11 09:42:44;;;;;;;7.57;3.30;;;12.00;50.80;;;;;;5055985;28;20037;-86
2023/02/11 09:45:16;;;;;;;6.00;2.80;;;12.00;50.80;;;;;;5038604;28;20477;-86
2023/02/11 09:47:49;;;;;;;9.05;3.53;;;12.00;50.70;;;;;;5053274;28;20629;-85
2023/02/11 09:50:24;;;;;;;8.00;3.60;;;12.10;50.60;;;;;;5054476;28;20049;-87
2023/02/11 09:53:02;;;;;;;4.65;3.03;;;12.10;50.50;;;;;;5038191;28;20321;-85
2023/02/11 09:55:38;;;;;;;5.20;2.83;;;12.10;50.50;;;;;;5055414;28;20445;-85
2023/02/11 09:58:11;;;;;;;8.88;3.25;;;12.20;50.50;;;;;;5056731;28;20044;-85
2023/02/11 10:00:51;;;;;;;5.55;3.85;;;12.20;50.40;;;;;;5053942;28;20492;-83
2023/02/11 10:03:17;;;;;;;4.45;3.00;;;12.20;50.90;;;;;;5055858;28;20036;-86
2023/02/11 10:06:11;;;;;;;5.97;3.67;;;12.30;50.30;;;;;;5022382;28;20561;-85
2023/02/11 10:08:46;;;;;;;5.55;3.10;;;12.30;50.30;;;;;;5057719;28;20029;-85
2023/02/11 10:11:19;;;;;;;;;;;12.30;50.20;;;;;;5056100;28;20025;-83
2023/02/11 10:14:06;;;;;;;9.35;3.75;;;12.40;50.20;;;;;;5054157;28;20465;-87
2023/02/11 10:16:54;;;;;;;7.90;3.13;;;12.30;50.10;;;;;;5032919;28;20472;-83
2023/02/11 10:19:35;;;;;;;6.68;3.47;;;12.40;50.00;;;;;;5053897;28;20071;-84
2023/02/11 10:22:19;;;;;;;8.30;4.03;;;12.40;50.00;;;;;;5055638;28;20430;-84
2023/02/11 10:24:59;;;;;;;4.63;3.40;;;12.40;50.00;;;;;;5054699;28;20029;-85
2023/02/11 10:27:32;;;;;;;3.95;2.85;;;12.40;50.00;;;;;;5088550;28;20037;-85
2023/02/11 10:30:22;;;;;;;5.90;3.58;;;12.40;50.00;;;;;;5037880;28;20045;-85
2023/02/11 10:32:50;;;;;;;4.03;2.90;;;12.50;50.00;;;;;;5050660;28;20029;-85
2023/02/11 10:35:22;;;;;;;4.85;2.67;;;12.50;50.00;;;;;;5053699;28;20036;-85
2023/02/11 10:37:49;;;;;;;6.57;2.97;;;12.50;50.00;;;;;;5070861;28;20032;-83
2023/02/11 10:40:19;;;;;;;6.30;3.30;;;12.50;49.90;;;;;;5058330;28;20075;-83
2023/02/11 10:42:49;;;;;;;5.30;3.17;;;12.50;49.90;;;;;;5054145;28;20037;-85
2023/02/11 10:45:23;;;;;;;5.38;3.17;;;12.60;50.00;;;;;;5054808;28;20033;-84
2023/02/11 10:47:50;;;;;;;5.47;3.35;;;12.60;49.90;;;;;;5034481;28;20048;-85
2023/02/11 10:50:25;;;;;;;7.65;3.53;;;12.60;49.80;;;;;;5038252;28;20037;-86
2023/02/11 10:52:51;;;;;;;4.47;2.80;;;12.60;49.70;;;;;;5025345;28;20123;-85
2023/02/11 10:55:20;;;;;;;5.68;3.70;;;12.60;49.60;;;;;;5054839;28;20063;-85
2023/02/11 10:57:59;;;;;;;8.73;4.32;;;12.60;49.60;;;;;;5038070;28;20037;-84
2023/02/11 11:00:39;;;;;;;8.68;3.75;;;12.70;49.60;;;;;;5041519;28;20033;-85
2023/02/11 11:03:21;;;;;;;9.68;3.75;;;12.70;49.60;;;;;;5051028;28;20477;-84
2023/02/11 11:05:58;;;;;;;5.93;3.38;;;12.70;49.70;;;;;;5041662;28;20028;-87
2023/02/11 11:08:43;;;;;;;8.65;4.28;;;12.70;49.60;;;;;;5055324;28;20043;-86
2023/02/11 11:11:15;;;;;;;6.87;3.43;;;12.70;49.60;;;;;;5041021;28;20055;-85
2023/02/11 11:14:02;;;;;;;7.43;3.75;;;12.70;49.60;;;;;;5045175;28;20090;-85
2023/02/11 11:16:32;;;;;;;8.07;3.67;;;12.70;49.50;;;;;;5083405;28;20573;-85
2023/02/11 11:19:07;;;;;;;6.63;4.03;;;12.70;49.50;;;;;;5055364;28;20040;-86
2023/02/11 11:21:39;;;;;;;5.35;3.35;;;12.70;49.60;;;;;;5055316;28;20036;-86
2023/02/11 11:24:28;;;;;;;8.25;3.75;;;12.70;49.50;;;;;;5058490;28;20032;-86
2023/02/11 11:26:58;;;;;;;7.90;3.70;;;12.70;49.50;;;;;;5047126;28;20064;-86
2023/02/11 11:29:46;;;;;;;6.82;3.60;;;12.70;49.40;;;;;;5080030;28;20048;-87
2023/02/11 11:32:24;;;;;;;8.07;4.20;;;12.70;49.40;;;;;;5019287;28;20330;-85
2023/02/11 11:34:54;;;;;;;6.97;3.97;;;12.70;49.40;;;;;;5055280;28;20032;-88
2023/02/11 11:37:29;;;;;;;6.10;4.10;;;12.70;49.50;;;;;;5025024;28;20029;-87
2023/02/11 11:40:21;;;;;;;7.50;4.40;;;12.70;49.60;;;;;;5065698;28;20447;-87
2023/02/11 11:43:03;;;;;;;6.45;3.80;;;12.70;49.60;;;;;;5075624;28;20131;-85
2023/02/11 11:45:30;;;;;;;6.13;3.70;;;12.70;49.50;;;;;;5075278;28;20253;-85
2023/02/11 11:48:13;;;;;;;5.95;4.22;;;12.80;49.40;;;;;;5069687;28;20050;-90
2023/02/11 11:50:56;;;;;;;6.15;4.35;;;12.70;49.20;;;;;;5064771;28;20037;-89
2023/02/11 11:53:43;;;;;;;7.13;4.10;;;12.80;49.30;;;;;;5047166;28;20117;-90
2023/02/11 11:56:21;;;;;;;7.60;4.13;;;12.80;49.20;;;;;;5074114;28;20042;-85
2023/02/11 11:58:49;;;;;;;6.63;4.20;;;12.80;49.20;;;;;;5038950;28;20034;-86
2023/02/11 12:01:15;;;;;;;9.52;4.15;;;12.80;49.20;;;;;;5044475;28;20147;-86
2023/02/11 12:04:16;;;;;;;6.80;4.25;;;12.80;49.20;;;;;;5026919;28;20037;-83
2023/02/11 12:06:57;;;;;;;7.10;4.43;;;12.80;49.10;;;;;;5056484;28;20033;-81
2023/02/11 12:09:54;;;;;;;7.10;4.00;;;12.80;49.10;;;;;;5057318;28;20032;-80
2023/02/11 12:12:44;;;;;;;7.22;4.03;;;12.80;49.10;;;;;;5039072;28;20037;-80
2023/02/11 12:15:22;;;;;;;7.15;4.63;;;12.80;49.20;;;;;;5028060;28;20041;-80
2023/02/11 12:17:58;;;;;;;8.85;4.68;;;12.80;49.30;;;;;;5033095;28;20032;-80
2023/02/11 12:20:40;;;;;;;7.90;4.15;;;12.90;49.40;;;;;;5029623;28;20036;-82
2023/02/11 12:23:47;;;;;;;6.85;4.40;;;12.80;49.20;;;;;;5055751;28;20063;-80
2023/02/11 12:26:16;;;;;;;;;;;12.80;49.30;;;;;;5056255;28;20412;-79
2023/02/11 12:28:47;;;;;;;7.15;4.18;;;12.80;49.30;;;;;;5042948;28;19971;-83
2023/02/11 12:31:17;;;;;;;9.20;4.57;;;12.80;49.30;;;;;;5058377;28;20028;-78
2023/02/11 12:34:12;;;;;;;7.25;4.47;;;12.80;49.20;;;;;;5055187;28;20403;-79
2023/02/11 12:37:15;;;;;;;8.90;4.43;;;12.80;49.20;;;;;;5057817;28;20078;-79
2023/02/11 12:40:13;;;;;;;7.03;4.80;;;12.90;49.20;;;;;;5057692;28;20102;-83
2023/02/11 12:43:16;;;;;;;6.68;4.15;;;12.90;49.30;;;;;;5041428;28;20123;-81
2023/02/11 12:45:58;;;;;;;10.05;4.72;;;12.90;49.20;;;;;;5053473;28;20029;-82
2023/02/11 12:48:32;;;;;;;6.68;4.30;;;12.90;49.30;;;;;;5053596;28;20079;-80
2023/02/11 12:51:01;;;;;;;8.95;4.10;;;12.90;49.30;;;;;;5058351;28;20033;-79
2023/02/11 12:53:44;;;;;;;6.50;4.10;;;12.90;49.40;;;;;;5061895;28;20046;-85
2023/02/11 12:56:19;;;;;;;7.47;4.60;;;12.90;49.30;;;;;;5060258;28;20029;-78
2023/02/11 12:58:49;;;;;;;6.85;4.60;;;12.90;49.40;;;;;;5055954;28;20044;-80
2023/02/11 13:01:17;;;;;;;8.27;4.60;;;12.80;49.20;;;;;;5033289;28;20032;-79
2023/02/11 13:03:54;;;;;;;10.18;4.70;;;12.90;49.20;;;;;;5054198;28;20480;-77
2023/02/11 13:06:45;;;;;;;8.23;4.35;;;12.90;49.30;;;;;;5056720;28;20048;-78
2023/02/11 13:09:19;;;;;;;7.57;3.90;;;12.90;49.20;;;;;;5043217;28;20041;-77
2023/02/11 13:11:50;;;;;;;6.18;4.00;;;12.90;49.20;;;;;;5055602;28;20090;-80
2023/02/11 13:14:39;;;;;;;6.57;3.90;;;12.90;49.10;;;;;;5056865;28;20025;-78
2023/02/11 13:17:15;;;;;;;7.07;4.28;;;12.90;49.10;;;;;;5055683;28;20395;-79
2023/02/11 13:19:55;;;;;;;8.60;4.00;;;12.90;49.10;;;;;;5055731;28;20120;-79
2023/02/11 13:22:42;;;;;;;7.78;4.68;;;12.90;49.10;;;;;;5037235;28;20555;-77